sensor_id;sensor_type;location;lat;lon;timestamp;temperature;humidity
34061;DHT22;20336;-33.424;-70.638;2024-02-15T00:01:04;25.00;99.90
34061;DHT22;20336;-33.424;-70.638;2024-02-15T00:03:31;24.90;99.90
34061;DHT22;20336;-33.424;-70.638;2024-02-15T00:06:00;24.90;99.90
34061;DHT22;20336;-33.424;-70.638;2024-02-15T00:08:30;24.90;99.90
34061;DHT22;20336;-33.424;-70.638;2024-02-15T00:10:56;24.60;99.90
34061;DHT22;20336;-33.424;-70.638;2024-02-15T00:13:23;24.60;99.90
34061;DHT22;20336;-33.424;-70.638;2024-02-15T00:15:51;24.60;99.90
34061;DHT22;20336;-33.424;-70.638;2024-02-15T00:18:18;24.40;99.90
34061;DHT22;20336;-33.424;-70.638;2024-02-15T00:20:45;24.40;99.90
34061;DHT22;20336;-33.424;-70.638;2024-02-15T00:23:12;24.30;99.90
34061;DHT22;20336;-33.424;-70.638;2024-02-15T00:25:39;24.30;99.90
34061;DHT22;20336;-33.424;-70.638;2024-02-15T00:28:11;24.30;99.90
34061;DHT22;20336;-33.424;-70.638;2024-02-15T00:30:39;24.20;99.90
34061;DHT22;20336;-33.424;-70.638;2024-02-15T00:33:06;24.10;99.90
34061;DHT22;20336;-33.424;-70.638;2024-02-15T00:35:33;23.90;99.90
34061;DHT22;20336;-33.424;-70.638;2024-02-15T00:38:00;23.90;99.90
34061;DHT22;20336;-33.424;-70.638;2024-02-15T00:40:27;23.80;99.90
34061;DHT22;20336;-33.424;-70.638;2024-02-15T00:42:54;23.70;99.90
34061;DHT22;20336;-33.424;-70.638;2024-02-15T00:45:21;23.60;99.90
34061;DHT22;20336;-33.424;-70.638;2024-02-15T00:47:47;23.50;99.90
34061;DHT22;20336;-33.424;-70.638;2024-02-15T00:50:14;23.30;99.90
34061;DHT22;20336;-33.424;-70.638;2024-02-15T00:52:41;23.20;99.90
34061;DHT22;20336;-33.424;-70.638;2024-02-15T00:55:08;23.10;99.90
34061;DHT22;20336;-33.424;-70.638;2024-02-15T00:57:35;23.10;99.90
34061;DHT22;20336;-33.424;-70.638;2024-02-15T01:00:03;23.00;99.90
34061;DHT22;20336;-33.424;-70.638;2024-02-15T01:02:32;23.00;99.90
34061;DHT22;20336;-33.424;-70.638;2024-02-15T01:05:00;22.90;99.90
34061;DHT22;20336;-33.424;-70.638;2024-02-15T01:07:27;23.00;99.90
34061;DHT22;20336;-33.424;-70.638;2024-02-15T01:09:54;22.70;99.90
34061;DHT22;20336;-33.424;-70.638;2024-02-15T01:12:21;22.70;99.90
34061;DHT22;20336;-33.424;-70.638;2024-02-15T01:14:48;22.70;99.90
34061;DHT22;20336;-33.424;-70.638;2024-02-15T01:17:15;22.70;99.90
34061;DHT22;20336;-33.424;-70.638;2024-02-15T01:19:43;22.60;99.90
34061;DHT22;20336;-33.424;-70.638;2024-02-15T01:22:10;22.50;99.90
34061;DHT22;20336;-33.424;-70.638;2024-02-15T01:24:37;22.40;99.90
34061;DHT22;20336;-33.424;-70.638;2024-02-15T01:27:04;22.40;99.90
34061;DHT22;20336;-33.424;-70.638;2024-02-15T01:31:59;22.30;99.90
34061;DHT22;20336;-33.424;-70.638;2024-02-15T01:34:25;22.20;99.90
34061;DHT22;20336;-33.424;-70.638;2024-02-15T01:36:52;22.30;99.90
34061;DHT22;20336;-33.424;-70.638;2024-02-15T01:39:19;22.20;99.90
34061;DHT22;20336;-33.424;-70.638;2024-02-15T01:41:49;22.20;99.90
34061;DHT22;20336;-33.424;-70.638;2024-02-15T01:44:22;22.10;99.90
34061;DHT22;20336;-33.424;-70.638;2024-02-15T01:46:50;22.10;99.90
